sensor_id;sensor_type;location;lat;lon;timestamp;P1;durP1;ratioP1;P2;durP2;ratioP2
10523;SDS011;5310;48.638;9.060;2022-11-15T00:00:49;0.75;;;0.75;;
10523;SDS011;5310;48.638;9.060;2022-11-15T00:03:16;0.65;;;0.65;;
10523;SDS011;5310;48.638;9.060;2022-11-15T00:05:42;0.60;;;0.60;;
10523;SDS011;5310;48.638;9.060;2022-11-15T00:08:08;0.85;;;0.85;;
10523;SDS011;5310;48.638;9.060;2022-11-15T00:10:34;0.77;;;0.77;;
10523;SDS011;5310;48.638;9.060;2022-11-15T00:13:00;0.60;;;0.60;;
10523;SDS011;5310;48.638;9.060;2022-11-15T00:15:28;0.60;;;0.60;;
10523;SDS011;5310;48.638;9.060;2022-11-15T00:17:56;0.88;;;0.88;;
10523;SDS011;5310;48.638;9.060;2022-11-15T00:20:22;0.80;;;0.80;;
10523;SDS011;5310;48.638;9.060;2022-11-15T00:22:47;0.70;;;0.70;;
10523;SDS011;5310;48.638;9.060;2022-11-15T00:25:13;0.60;;;0.60;;
10523;SDS011;5310;48.638;9.060;2022-11-15T00:27:39;0.80;;;0.80;;
10523;SDS011;5310;48.638;9.060;2022-11-15T00:30:07;0.98;;;0.98;;
10523;SDS011;5310;48.638;9.060;2022-11-15T00:32:33;0.75;;;0.75;;
10523;SDS011;5310;48.638;9.060;2022-11-15T00:34:59;0.60;;;0.60;;
10523;SDS011;5310;48.638;9.060;2022-11-15T00:37:25;0.77;;;0.77;;
10523;SDS011;5310;48.638;9.060;2022-11-15T00:39:51;1.00;;;1.00;;
10523;SDS011;5310;48.638;9.060;2022-11-15T00:42:16;0.70;;;0.70;;
10523;SDS011;5310;48.638;9.060;2022-11-15T00:44:42;0.60;;;0.60;;
10523;SDS011;5310;48.638;9.060;2022-11-15T00:47:08;0.60;;;0.60;;
10523;SDS011;5310;48.638;9.060;2022-11-15T00:49:35;1.00;;;1.00;;
10523;SDS011;5310;48.638;9.060;2022-11-15T00:52:01;0.82;;;0.82;;
10523;SDS011;5310;48.638;9.060;2022-11-15T00:54:26;0.70;;;0.70;;
10523;SDS011;5310;48.638;9.060;2022-11-15T00:56:52;0.65;;;0.65;;
10523;SDS011;5310;48.638;9.060;2022-11-15T00:59:19;0.68;;;0.68;;
10523;SDS011;5310;48.638;9.060;2022-11-15T01:01:45;1.00;;;1.00;;
10523;SDS011;5310;48.638;9.060;2022-11-15T01:04:11;0.80;;;0.80;;
10523;SDS011;5310;48.638;9.060;2022-11-15T01:06:37;0.70;;;0.70;;
10523;SDS011;5310;48.638;9.060;2022-11-15T01:09:03;0.70;;;0.70;;
10523;SDS011;5310;48.638;9.060;2022-11-15T01:11:29;0.60;;;0.60;;
10523;SDS011;5310;48.638;9.060;2022-11-15T01:13:55;0.82;;;0.82;;
10523;SDS011;5310;48.638;9.060;2022-11-15T01:16:21;0.90;;;0.90;;
10523;SDS011;5310;48.638;9.060;2022-11-15T01:18:47;0.70;;;0.70;;
10523;SDS011;5310;48.638;9.060;2022-11-15T01:21:14;0.63;;;0.63;;
10523;SDS011;5310;48.638;9.060;2022-11-15T01:23:41;0.60;;;0.60;;
10523;SDS011;5310;48.638;9.060;2022-11-15T01:26:09;0.70;;;0.70;;
10523;SDS011;5310;48.638;9.060;2022-11-15T01:28:37;1.00;;;1.00;;
10523;SDS011;5310;48.638;9.060;2022-11-15T01:31:06;0.80;;;0.80;;
10523;SDS011;5310;48.638;9.060;2022-11-15T01:33:34;0.70;;;0.70;;
10523;SDS011;5310;48.638;9.060;2022-11-15T01:36:08;0.70;;;0.70;;
10523;SDS011;5310;48.638;9.060;2022-11-15T01:38:35;0.65;;;0.65;;
10523;SDS011;5310;48.638;9.060;2022-11-15T01:41:01;0.85;;;0.85;;
10523;SDS011;5310;48.638;9.060;2022-11-15T01:43:29;0.90;;;0.90;;
10523;SDS011;5310;48.638;9.060;2022-11-15T01:45:56;0.80;;;0.80;;
10523;SDS011;5310;48.638;9.060;2022-11-15T01:48:25;0.70;;;0.70;;
10523;SDS011;5310;48.638;9.060;2022-11-15T01:50:54;0.60;;;0.60;;
10523;SDS011;5310;48.638;9.060;2022-11-15T01:53:20;0.80;;;0.80;;
10523;SDS011;5310;48.638;9.060;2022-11-15T01:55:48;1.00;;;1.00;;
10523;SDS011;5310;48.638;9.060;2022-11-15T01:58:14;0.83;;;0.83;;
10523;SDS011;5310;48.638;9.060;2022-11-15T02:00:40;0.70;;;0.70;;
10523;SDS011;5310;48.638;9.060;2022-11-15T02:03:06;0.70;;;0.70;;
10523;SDS011;5310;48.638;9.060;2022-11-15T02:05:32;0.60;;;0.60;;
10523;SDS011;5310;48.638;9.060;2022-11-15T02:07:59;0.80;;;0.80;;
10523;SDS011;5310;48.638;9.060;2022-11-15T02:10:25;1.00;;;1.00;;
10523;SDS011;5310;48.638;9.060;2022-11-15T02:12:51;0.83;;;0.83;;
10523;SDS011;5310;48.638;9.060;2022-11-15T02:15:18;0.77;;;0.77;;
10523;SDS011;5310;48.638;9.060;2022-11-15T02:23:14;1.00;;;1.00;;
10523;SDS011;5310;48.638;9.060;2022-11-15T02:29:09;0.67;;;0.67;;
10523;SDS011;5310;48.638;9.060;2022-11-15T02:39:23;0.68;;;0.68;;
10523;SDS011;5310;48.638;9.060;2022-11-15T02:44:36;0.73;;;0.73;;
10523;SDS011;5310;48.638;9.060;2022-11-15T02:47:06;0.60;;;0.60;;
10523;SDS011;5310;48.638;9.060;2022-11-15T02:49:41;0.90;;;0.90;;
10523;SDS011;5310;48.638;9.060;2022-11-15T02:52:07;0.90;;;0.90;;
10523;SDS011;5310;48.638;9.060;2022-11-15T02:54:34;0.70;;;0.70;;
10523;SDS011;5310;48.638;9.060;2022-11-15T02:57:04;0.60;;;0.60;;
10523;SDS011;5310;48.638;9.060;2022-11-15T02:59:44;0.60;;;0.60;;
10523;SDS011;5310;48.638;9.060;2022-11-15T03:04:57;0.70;;;0.70;;
10523;SDS011;5310;48.638;9.060;2022-11-15T03:10:05;0.60;;;0.60;;
10523;SDS011;5310;48.638;9.060;2022-11-15T03:17:53;0.70;;;0.70;;
10523;SDS011;5310;48.638;9.060;2022-11-15T03:20:21;0.60;;;0.60;;
10523;SDS011;5310;48.638;9.060;2022-11-15T03:22:48;0.90;;;0.90;;
10523;SDS011;5310;48.638;9.060;2022-11-15T03:25:19;1.00;;;1.00;;
10523;SDS011;5310;48.638;9.060;2022-11-15T03:27:48;0.80;;;0.80;;
10523;SDS011;5310;48.638;9.060;2022-11-15T03:30:16;0.70;;;0.70;;
10523;SDS011;5310;48.638;9.060;2022-11-15T03:32:46;0.65;;;0.65;;
10523;SDS011;5310;48.638;9.060;2022-11-15T03:35:21;0.80;;;0.80;;
10523;SDS011;5310;48.638;9.060;2022-11-15T03:40:53;0.70;;;0.70;;
10523;SDS011;5310;48.638;9.060;2022-11-15T03:43:28;0.75;;;0.75;;
10523;SDS011;5310;48.638;9.060;2022-11-15T03:45:57;0.98;;;0.98;;
10523;SDS011;5310;48.638;9.060;2022-11-15T03:48:27;0.75;;;0.75;;
10523;SDS011;5310;48.638;9.060;2022-11-15T03:50:58;0.70;;;0.70;;
10523;SDS011;5310;48.638;9.060;2022-11-15T03:53:24;0.60;;;0.60;;
10523;SDS011;5310;48.638;9.060;2022-11-15T03:55:50;0.80;;;0.80;;
10523;SDS011;5310;48.638;9.060;2022-11-15T03:58:16;0.90;;;0.90;;
10523;SDS011;5310;48.638;9.060;2022-11-15T04:00:41;0.80;;;0.80;;
10523;SDS011;5310;48.638;9.060;2022-11-15T04:03:07;0.70;;;0.70;;
10523;SDS011;5310;48.638;9.060;2022-11-15T04:05:33;0.60;;;0.60;;
10523;SDS011;5310;48.638;9.060;2022-11-15T04:07:59;0.70;;;0.70;;
10523;SDS011;5310;48.638;9.060;2022-11-15T04:10:25;1.00;;;1.00;;
10523;SDS011;5310;48.638;9.060;2022-11-15T04:12:51;0.80;;;0.80;;
10523;SDS011;5310;48.638;9.060;2022-11-15T04:15:18;0.63;;;0.63;;
10523;SDS011;5310;48.638;9.060;2022-11-15T04:17:47;0.60;;;0.60;;
10523;SDS011;5310;48.638;9.060;2022-11-15T04:20:18;0.70;;;0.70;;
10523;SDS011;5310;48.638;9.060;2022-11-15T04:23:06;0.77;;;0.77;;
10523;SDS011;5310;48.638;9.060;2022-11-15T04:25:54;0.60;;;0.60;;
10523;SDS011;5310;48.638;9.060;2022-11-15T04:28:21;0.68;;;0.68;;
10523;SDS011;5310;48.638;9.060;2022-11-15T04:30:47;0.80;;;0.80;;
10523;SDS011;5310;48.638;9.060;2022-11-15T04:33:13;0.60;;;0.60;;
10523;SDS011;5310;48.638;9.060;2022-11-15T04:35:39;0.60;;;0.60;;
10523;SDS011;5310;48.638;9.060;2022-11-15T04:38:05;0.83;;;0.83;;
10523;SDS011;5310;48.638;9.060;2022-11-15T04:40:32;0.85;;;0.85;;
10523;SDS011;5310;48.638;9.060;2022-11-15T04:42:57;0.70;;;0.70;;
10523;SDS011;5310;48.638;9.060;2022-11-15T04:45:23;0.60;;;0.60;;
10523;SDS011;5310;48.638;9.060;2022-11-15T04:47:49;0.80;;;0.80;;
10523;SDS011;5310;48.638;9.060;2022-11-15T04:50:15;0.80;;;0.80;;
10523;SDS011;5310;48.638;9.060;2022-11-15T04:52:42;0.70;;;0.70;;
10523;SDS011;5310;48.638;9.060;2022-11-15T04:55:11;0.60;;;0.60;;
10523;SDS011;5310;48.638;9.060;2022-11-15T04:57:37;0.80;;;0.80;;
10523;SDS011;5310;48.638;9.060;2022-11-15T05:00:04;0.80;;;0.80;;
10523;SDS011;5310;48.638;9.060;2022-11-15T05:02:31;0.60;;;0.60;;
10523;SDS011;5310;48.638;9.060;2022-11-15T05:05:15;0.60;;;0.60;;
10523;SDS011;5310;48.638;9.060;2022-11-15T05:07:41;0.90;;;0.90;;
10523;SDS011;5310;48.638;9.060;2022-11-15T05:10:08;0.90;;;0.90;;
10523;SDS011;5310;48.638;9.060;2022-11-15T05:12:34;0.70;;;0.70;;
10523;SDS011;5310;48.638;9.060;2022-11-15T05:15:00;0.60;;;0.60;;
10523;SDS011;5310;48.638;9.060;2022-11-15T05:17:26;0.80;;;0.80;;
10523;SDS011;5310;48.638;9.060;2022-11-15T05:19:52;0.90;;;0.90;;
10523;SDS011;5310;48.638;9.060;2022-11-15T05:22:18;0.70;;;0.70;;
10523;SDS011;5310;48.638;9.060;2022-11-15T05:24:44;0.63;;;0.63;;
10523;SDS011;5310;48.638;9.060;2022-11-15T05:27:10;0.80;;;0.80;;
10523;SDS011;5310;48.638;9.060;2022-11-15T05:29:36;0.90;;;0.90;;
10523;SDS011;5310;48.638;9.060;2022-11-15T05:32:03;0.70;;;0.70;;
10523;SDS011;5310;48.638;9.060;2022-11-15T05:34:30;0.68;;;0.68;;
10523;SDS011;5310;48.638;9.060;2022-11-15T05:36:58;0.60;;;0.60;;
10523;SDS011;5310;48.638;9.060;2022-11-15T05:39:24;0.88;;;0.88;;
10523;SDS011;5310;48.638;9.060;2022-11-15T05:41:52;0.90;;;0.90;;
10523;SDS011;5310;48.638;9.060;2022-11-15T05:44:21;0.70;;;0.70;;
10523;SDS011;5310;48.638;9.060;2022-11-15T05:46:48;0.60;;;0.60;;
10523;SDS011;5310;48.638;9.060;2022-11-15T05:49:16;0.60;;;0.60;;
10523;SDS011;5310;48.638;9.060;2022-11-15T05:51:44;0.90;;;0.90;;
10523;SDS011;5310;48.638;9.060;2022-11-15T05:54:12;0.70;;;0.70;;
10523;SDS011;5310;48.638;9.060;2022-11-15T05:56:39;0.60;;;0.60;;
10523;SDS011;5310;48.638;9.060;2022-11-15T05:59:05;0.60;;;0.60;;
10523;SDS011;5310;48.638;9.060;2022-11-15T06:01:32;1.00;;;1.00;;
10523;SDS011;5310;48.638;9.060;2022-11-15T06:03:58;0.85;;;0.85;;
10523;SDS011;5310;48.638;9.060;2022-11-15T06:06:24;0.68;;;0.68;;
10523;SDS011;5310;48.638;9.060;2022-11-15T06:08:50;0.60;;;0.60;;
10523;SDS011;5310;48.638;9.060;2022-11-15T06:11:17;0.70;;;0.70;;
10523;SDS011;5310;48.638;9.060;2022-11-15T06:13:43;0.90;;;0.90;;
10523;SDS011;5310;48.638;9.060;2022-11-15T06:16:08;0.70;;;0.70;;
10523;SDS011;5310;48.638;9.060;2022-11-15T06:18:34;0.60;;;0.60;;
10523;SDS011;5310;48.638;9.060;2022-11-15T06:21:00;0.60;;;0.60;;
10523;SDS011;5310;48.638;9.060;2022-11-15T06:23:27;0.68;;;0.68;;
10523;SDS011;5310;48.638;9.060;2022-11-15T06:25:53;1.00;;;1.00;;
10523;SDS011;5310;48.638;9.060;2022-11-15T06:28:19;0.80;;;0.80;;
10523;SDS011;5310;48.638;9.060;2022-11-15T06:30:44;0.68;;;0.68;;
10523;SDS011;5310;48.638;9.060;2022-11-15T06:33:10;0.57;;;0.57;;
10523;SDS011;5310;48.638;9.060;2022-11-15T06:35:36;0.73;;;0.73;;
10523;SDS011;5310;48.638;9.060;2022-11-15T06:38:04;0.90;;;0.90;;
10523;SDS011;5310;48.638;9.060;2022-11-15T06:40:33;0.77;;;0.77;;
10523;SDS011;5310;48.638;9.060;2022-11-15T06:43:00;0.70;;;0.70;;
10523;SDS011;5310;48.638;9.060;2022-11-15T06:45:26;0.60;;;0.60;;
10523;SDS011;5310;48.638;9.060;2022-11-15T06:47:52;0.90;;;0.90;;
10523;SDS011;5310;48.638;9.060;2022-11-15T06:50:18;0.82;;;0.82;;
10523;SDS011;5310;48.638;9.060;2022-11-15T06:52:44;0.60;;;0.60;;
10523;SDS011;5310;48.638;9.060;2022-11-15T06:55:10;0.60;;;0.60;;
10523;SDS011;5310;48.638;9.060;2022-11-15T06:57:36;0.80;;;0.80;;
10523;SDS011;5310;48.638;9.060;2022-11-15T07:00:03;0.88;;;0.88;;
10523;SDS011;5310;48.638;9.060;2022-11-15T07:02:29;0.70;;;0.70;;
10523;SDS011;5310;48.638;9.060;2022-11-15T07:04:57;0.60;;;0.60;;
10523;SDS011;5310;48.638;9.060;2022-11-15T07:07:22;0.73;;;0.73;;
10523;SDS011;5310;48.638;9.060;2022-11-15T07:09:48;0.90;;;0.90;;
10523;SDS011;5310;48.638;9.060;2022-11-15T07:12:14;0.70;;;0.70;;
10523;SDS011;5310;48.638;9.060;2022-11-15T07:14:40;0.57;;;0.57;;
10523;SDS011;5310;48.638;9.060;2022-11-15T07:17:07;0.75;;;0.75;;
10523;SDS011;5310;48.638;9.060;2022-11-15T07:19:33;0.80;;;0.80;;
10523;SDS011;5310;48.638;9.060;2022-11-15T07:21:59;0.70;;;0.70;;
10523;SDS011;5310;48.638;9.060;2022-11-15T07:24:26;0.60;;;0.60;;
10523;SDS011;5310;48.638;9.060;2022-11-15T07:26:52;0.70;;;0.70;;
10523;SDS011;5310;48.638;9.060;2022-11-15T07:29:18;0.80;;;0.80;;
10523;SDS011;5310;48.638;9.060;2022-11-15T07:31:44;0.60;;;0.60;;
10523;SDS011;5310;48.638;9.060;2022-11-15T07:34:09;0.75;;;0.75;;
10523;SDS011;5310;48.638;9.060;2022-11-15T07:36:35;0.60;;;0.60;;
10523;SDS011;5310;48.638;9.060;2022-11-15T07:39:01;0.50;;;0.50;;
10523;SDS011;5310;48.638;9.060;2022-11-15T07:41:27;0.80;;;0.80;;
10523;SDS011;5310;48.638;9.060;2022-11-15T07:43:54;0.70;;;0.70;;
10523;SDS011;5310;48.638;9.060;2022-11-15T07:46:20;0.47;;;0.47;;
10523;SDS011;5310;48.638;9.060;2022-11-15T07:48:46;0.80;;;0.80;;
10523;SDS011;5310;48.638;9.060;2022-11-15T07:51:12;0.55;;;0.55;;
10523;SDS011;5310;48.638;9.060;2022-11-15T07:53:39;0.50;;;0.50;;
10523;SDS011;5310;48.638;9.060;2022-11-15T07:56:07;0.60;;;0.60;;
10523;SDS011;5310;48.638;9.060;2022-11-15T07:58:33;0.50;;;0.50;;
10523;SDS011;5310;48.638;9.060;2022-11-15T08:01:02;0.70;;;0.70;;
10523;SDS011;5310;48.638;9.060;2022-11-15T08:03:30;0.50;;;0.50;;
10523;SDS011;5310;48.638;9.060;2022-11-15T08:05:56;0.70;;;0.70;;
10523;SDS011;5310;48.638;9.060;2022-11-15T08:08:21;0.60;;;0.60;;
10523;SDS011;5310;48.638;9.060;2022-11-15T08:10:47;0.67;;;0.67;;
10523;SDS011;5310;48.638;9.060;2022-11-15T08:13:13;0.60;;;0.60;;
10523;SDS011;5310;48.638;9.060;2022-11-15T08:15:39;0.40;;;0.40;;
10523;SDS011;5310;48.638;9.060;2022-11-15T08:18:15;0.60;;;0.60;;
10523;SDS011;5310;48.638;9.060;2022-11-15T08:20:41;0.43;;;0.43;;
10523;SDS011;5310;48.638;9.060;2022-11-15T08:23:08;0.60;;;0.60;;
10523;SDS011;5310;48.638;9.060;2022-11-15T08:25:36;0.50;;;0.50;;
10523;SDS011;5310;48.638;9.060;2022-11-15T08:28:03;0.70;;;0.70;;
10523;SDS011;5310;48.638;9.060;2022-11-15T08:30:34;0.50;;;0.50;;
10523;SDS011;5310;48.638;9.060;2022-11-15T08:33:01;0.70;;;0.70;;
10523;SDS011;5310;48.638;9.060;2022-11-15T08:35:27;0.60;;;0.60;;
10523;SDS011;5310;48.638;9.060;2022-11-15T08:37:53;0.60;;;0.60;;
10523;SDS011;5310;48.638;9.060;2022-11-15T08:40:19;0.60;;;0.60;;
10523;SDS011;5310;48.638;9.060;2022-11-15T08:42:48;0.60;;;0.60;;
10523;SDS011;5310;48.638;9.060;2022-11-15T08:45:15;0.50;;;0.50;;
10523;SDS011;5310;48.638;9.060;2022-11-15T08:47:41;0.60;;;0.60;;
10523;SDS011;5310;48.638;9.060;2022-11-15T08:50:07;0.60;;;0.60;;
10523;SDS011;5310;48.638;9.060;2022-11-15T08:52:32;0.40;;;0.40;;
10523;SDS011;5310;48.638;9.060;2022-11-15T08:54:58;0.60;;;0.60;;
10523;SDS011;5310;48.638;9.060;2022-11-15T08:57:24;0.40;;;0.40;;
10523;SDS011;5310;48.638;9.060;2022-11-15T08:59:50;0.50;;;0.50;;
10523;SDS011;5310;48.638;9.060;2022-11-15T09:02:16;0.50;;;0.50;;
10523;SDS011;5310;48.638;9.060;2022-11-15T09:04:42;0.40;;;0.40;;
10523;SDS011;5310;48.638;9.060;2022-11-15T09:07:10;0.57;;;0.57;;
10523;SDS011;5310;48.638;9.060;2022-11-15T09:09:36;0.50;;;0.50;;
10523;SDS011;5310;48.638;9.060;2022-11-15T09:12:03;0.50;;;0.50;;
10523;SDS011;5310;48.638;9.060;2022-11-15T09:14:30;0.50;;;0.50;;
10523;SDS011;5310;48.638;9.060;2022-11-15T09:16:56;0.47;;;0.47;;
10523;SDS011;5310;48.638;9.060;2022-11-15T09:19:23;0.40;;;0.40;;
10523;SDS011;5310;48.638;9.060;2022-11-15T09:21:49;0.50;;;0.50;;
10523;SDS011;5310;48.638;9.060;2022-11-15T09:24:15;0.50;;;0.50;;
10523;SDS011;5310;48.638;9.060;2022-11-15T09:26:42;0.30;;;0.30;;
10523;SDS011;5310;48.638;9.060;2022-11-15T09:29:08;0.40;;;0.40;;
10523;SDS011;5310;48.638;9.060;2022-11-15T09:31:34;0.40;;;0.40;;
10523;SDS011;5310;48.638;9.060;2022-11-15T09:34:00;0.40;;;0.40;;
10523;SDS011;5310;48.638;9.060;2022-11-15T09:36:25;0.40;;;0.40;;
10523;SDS011;5310;48.638;9.060;2022-11-15T09:38:51;0.40;;;0.40;;
10523;SDS011;5310;48.638;9.060;2022-11-15T09:49:23;0.50;;;0.50;;
10523;SDS011;5310;48.638;9.060;2022-11-15T09:51:50;0.50;;;0.50;;
10523;SDS011;5310;48.638;9.060;2022-11-15T09:54:35;0.50;;;0.50;;
10523;SDS011;5310;48.638;9.060;2022-11-15T09:57:12;0.50;;;0.50;;
10523;SDS011;5310;48.638;9.060;2022-11-15T09:59:41;0.40;;;0.40;;
10523;SDS011;5310;48.638;9.060;2022-11-15T10:02:29;0.40;;;0.40;;
10523;SDS011;5310;48.638;9.060;2022-11-15T10:04:58;0.32;;;0.32;;
10523;SDS011;5310;48.638;9.060;2022-11-15T10:12:55;0.35;;;0.35;;
10523;SDS011;5310;48.638;9.060;2022-11-15T10:15:21;0.40;;;0.40;;
10523;SDS011;5310;48.638;9.060;2022-11-15T10:20:29;0.40;;;0.40;;
10523;SDS011;5310;48.638;9.060;2022-11-15T10:23:01;0.40;;;0.40;;
10523;SDS011;5310;48.638;9.060;2022-11-15T10:25:28;0.40;;;0.40;;
10523;SDS011;5310;48.638;9.060;2022-11-15T10:27:55;0.40;;;0.40;;
10523;SDS011;5310;48.638;9.060;2022-11-15T10:30:22;0.30;;;0.30;;
10523;SDS011;5310;48.638;9.060;2022-11-15T10:32:48;0.30;;;0.30;;
10523;SDS011;5310;48.638;9.060;2022-11-15T10:37:49;0.40;;;0.40;;
10523;SDS011;5310;48.638;9.060;2022-11-15T10:40:20;0.40;;;0.40;;
10523;SDS011;5310;48.638;9.060;2022-11-15T10:42:47;0.30;;;0.30;;
10523;SDS011;5310;48.638;9.060;2022-11-15T10:45:24;0.30;;;0.30;;
10523;SDS011;5310;48.638;9.060;2022-11-15T10:47:52;0.40;;;0.40;;
10523;SDS011;5310;48.638;9.060;2022-11-15T10:50:31;0.40;;;0.40;;
10523;SDS011;5310;48.638;9.060;2022-11-15T10:52:57;0.30;;;0.30;;
10523;SDS011;5310;48.638;9.060;2022-11-15T10:55:27;0.30;;;0.30;;
10523;SDS011;5310;48.638;9.060;2022-11-15T10:57:57;0.30;;;0.30;;
10523;SDS011;5310;48.638;9.060;2022-11-15T11:00:30;0.30;;;0.30;;
10523;SDS011;5310;48.638;9.060;2022-11-15T11:03:20;0.30;;;0.30;;
10523;SDS011;5310;48.638;9.060;2022-11-15T11:06:03;0.40;;;0.40;;
10523;SDS011;5310;48.638;9.060;2022-11-15T11:08:39;0.30;;;0.30;;
10523;SDS011;5310;48.638;9.060;2022-11-15T11:11:17;0.30;;;0.30;;
10523;SDS011;5310;48.638;9.060;2022-11-15T11:13:43;0.30;;;0.30;;
10523;SDS011;5310;48.638;9.060;2022-11-15T11:21:22;0.30;;;0.30;;
10523;SDS011;5310;48.638;9.060;2022-11-15T11:26:25;0.40;;;0.40;;
10523;SDS011;5310;48.638;9.060;2022-11-15T11:29:02;0.30;;;0.30;;
10523;SDS011;5310;48.638;9.060;2022-11-15T11:34:05;0.30;;;0.30;;
10523;SDS011;5310;48.638;9.060;2022-11-15T11:50:03;0.30;;;0.30;;
10523;SDS011;5310;48.638;9.060;2022-11-15T11:55:45;0.40;;;0.40;;
10523;SDS011;5310;48.638;9.060;2022-11-15T12:00:56;0.30;;;0.30;;
10523;SDS011;5310;48.638;9.060;2022-11-15T12:03:28;0.20;;;0.20;;
10523;SDS011;5310;48.638;9.060;2022-11-15T12:08:46;0.30;;;0.30;;
10523;SDS011;5310;48.638;9.060;2022-11-15T12:11:22;0.30;;;0.30;;
10523;SDS011;5310;48.638;9.060;2022-11-15T12:13:50;0.30;;;0.30;;
10523;SDS011;5310;48.638;9.060;2022-11-15T12:16:23;0.30;;;0.30;;
10523;SDS011;5310;48.638;9.060;2022-11-15T12:18:53;0.30;;;0.30;;
10523;SDS011;5310;48.638;9.060;2022-11-15T12:21:21;0.30;;;0.30;;
10523;SDS011;5310;48.638;9.060;2022-11-15T12:23:52;0.30;;;0.30;;
10523;SDS011;5310;48.638;9.060;2022-11-15T12:26:26;0.32;;;0.32;;
10523;SDS011;5310;48.638;9.060;2022-11-15T12:28:54;0.20;;;0.20;;
10523;SDS011;5310;48.638;9.060;2022-11-15T12:31:43;0.40;;;0.40;;
10523;SDS011;5310;48.638;9.060;2022-11-15T12:36:43;0.40;;;0.40;;
10523;SDS011;5310;48.638;9.060;2022-11-15T12:39:10;0.30;;;0.30;;
10523;SDS011;5310;48.638;9.060;2022-11-15T13:02:19;0.30;;;0.30;;
10523;SDS011;5310;48.638;9.060;2022-11-15T13:17:44;0.30;;;0.30;;
10523;SDS011;5310;48.638;9.060;2022-11-15T13:20:17;0.35;;;0.35;;
10523;SDS011;5310;48.638;9.060;2022-11-15T13:31:02;0.30;;;0.30;;
10523;SDS011;5310;48.638;9.060;2022-11-15T13:33:34;0.30;;;0.30;;
10523;SDS011;5310;48.638;9.060;2022-11-15T13:38:39;0.40;;;0.40;;
10523;SDS011;5310;48.638;9.060;2022-11-15T13:41:22;0.30;;;0.30;;
10523;SDS011;5310;48.638;9.060;2022-11-15T13:43:49;0.30;;;0.30;;
10523;SDS011;5310;48.638;9.060;2022-11-15T13:46:24;0.30;;;0.30;;
10523;SDS011;5310;48.638;9.060;2022-11-15T13:48:53;0.30;;;0.30;;
10523;SDS011;5310;48.638;9.060;2022-11-15T13:51:36;0.30;;;0.30;;
10523;SDS011;5310;48.638;9.060;2022-11-15T13:54:14;0.30;;;0.30;;
10523;SDS011;5310;48.638;9.060;2022-11-15T13:57:04;0.30;;;0.30;;
10523;SDS011;5310;48.638;9.060;2022-11-15T13:59:47;0.30;;;0.30;;
10523;SDS011;5310;48.638;9.060;2022-11-15T14:02:18;0.30;;;0.30;;
10523;SDS011;5310;48.638;9.060;2022-11-15T14:07:24;0.30;;;0.30;;
10523;SDS011;5310;48.638;9.060;2022-11-15T14:09:51;0.40;;;0.40;;
10523;SDS011;5310;48.638;9.060;2022-11-15T14:12:24;0.32;;;0.32;;
10523;SDS011;5310;48.638;9.060;2022-11-15T14:14:52;0.30;;;0.30;;
10523;SDS011;5310;48.638;9.060;2022-11-15T14:19:54;0.30;;;0.30;;
10523;SDS011;5310;48.638;9.060;2022-11-15T14:22:24;0.40;;;0.40;;
10523;SDS011;5310;48.638;9.060;2022-11-15T14:25:25;0.40;;;0.40;;
10523;SDS011;5310;48.638;9.060;2022-11-15T14:27:45;0.38;;;0.38;;
10523;SDS011;5310;48.638;9.060;2022-11-15T14:30:38;0.30;;;0.30;;
10523;SDS011;5310;48.638;9.060;2022-11-15T14:33:18;0.30;;;0.30;;
10523;SDS011;5310;48.638;9.060;2022-11-15T14:35:44;0.30;;;0.30;;
10523;SDS011;5310;48.638;9.060;2022-11-15T14:38:10;0.30;;;0.30;;
10523;SDS011;5310;48.638;9.060;2022-11-15T14:40:36;0.32;;;0.32;;
10523;SDS011;5310;48.638;9.060;2022-11-15T14:43:02;0.40;;;0.40;;
10523;SDS011;5310;48.638;9.060;2022-11-15T14:45:28;0.30;;;0.30;;
10523;SDS011;5310;48.638;9.060;2022-11-15T14:47:53;0.30;;;0.30;;
10523;SDS011;5310;48.638;9.060;2022-11-15T14:50:19;0.30;;;0.30;;
10523;SDS011;5310;48.638;9.060;2022-11-15T14:52:47;0.40;;;0.40;;
10523;SDS011;5310;48.638;9.060;2022-11-15T14:55:17;0.30;;;0.30;;
10523;SDS011;5310;48.638;9.060;2022-11-15T14:57:47;0.30;;;0.30;;
10523;SDS011;5310;48.638;9.060;2022-11-15T15:00:13;0.35;;;0.35;;
10523;SDS011;5310;48.638;9.060;2022-11-15T15:02:41;0.40;;;0.40;;
10523;SDS011;5310;48.638;9.060;2022-11-15T15:05:15;0.40;;;0.40;;
10523;SDS011;5310;48.638;9.060;2022-11-15T15:07:45;0.30;;;0.30;;
10523;SDS011;5310;48.638;9.060;2022-11-15T15:10:11;0.30;;;0.30;;
10523;SDS011;5310;48.638;9.060;2022-11-15T15:12:38;0.30;;;0.30;;
10523;SDS011;5310;48.638;9.060;2022-11-15T15:15:04;0.30;;;0.30;;
10523;SDS011;5310;48.638;9.060;2022-11-15T15:17:30;0.30;;;0.30;;
10523;SDS011;5310;48.638;9.060;2022-11-15T15:19:56;0.30;;;0.30;;
10523;SDS011;5310;48.638;9.060;2022-11-15T15:22:22;0.30;;;0.30;;
10523;SDS011;5310;48.638;9.060;2022-11-15T15:24:52;0.30;;;0.30;;
10523;SDS011;5310;48.638;9.060;2022-11-15T15:27:18;0.30;;;0.30;;
10523;SDS011;5310;48.638;9.060;2022-11-15T15:29:44;0.30;;;0.30;;
10523;SDS011;5310;48.638;9.060;2022-11-15T15:32:10;0.30;;;0.30;;
10523;SDS011;5310;48.638;9.060;2022-11-15T15:34:36;0.30;;;0.30;;
10523;SDS011;5310;48.638;9.060;2022-11-15T15:37:19;0.30;;;0.30;;
10523;SDS011;5310;48.638;9.060;2022-11-15T15:39:53;0.43;;;0.43;;
10523;SDS011;5310;48.638;9.060;2022-11-15T15:42:20;0.40;;;0.40;;
10523;SDS011;5310;48.638;9.060;2022-11-15T15:44:46;0.40;;;0.40;;
10523;SDS011;5310;48.638;9.060;2022-11-15T15:47:18;0.40;;;0.40;;
10523;SDS011;5310;48.638;9.060;2022-11-15T15:49:45;0.40;;;0.40;;
10523;SDS011;5310;48.638;9.060;2022-11-15T15:52:12;0.40;;;0.40;;
10523;SDS011;5310;48.638;9.060;2022-11-15T15:54:38;0.40;;;0.40;;
10523;SDS011;5310;48.638;9.060;2022-11-15T15:57:04;0.40;;;0.40;;
10523;SDS011;5310;48.638;9.060;2022-11-15T15:59:30;0.40;;;0.40;;
10523;SDS011;5310;48.638;9.060;2022-11-15T16:01:56;0.40;;;0.40;;
10523;SDS011;5310;48.638;9.060;2022-11-15T16:04:25;0.40;;;0.40;;
10523;SDS011;5310;48.638;9.060;2022-11-15T16:06:51;0.40;;;0.40;;
10523;SDS011;5310;48.638;9.060;2022-11-15T16:09:19;0.40;;;0.40;;
10523;SDS011;5310;48.638;9.060;2022-11-15T16:12:08;0.32;;;0.32;;
10523;SDS011;5310;48.638;9.060;2022-11-15T16:14:33;0.40;;;0.40;;
10523;SDS011;5310;48.638;9.060;2022-11-15T16:17:01;0.40;;;0.40;;
10523;SDS011;5310;48.638;9.060;2022-11-15T16:19:27;0.40;;;0.40;;
10523;SDS011;5310;48.638;9.060;2022-11-15T16:21:53;0.45;;;0.45;;
10523;SDS011;5310;48.638;9.060;2022-11-15T16:24:19;0.40;;;0.40;;
10523;SDS011;5310;48.638;9.060;2022-11-15T16:26:45;0.40;;;0.40;;
10523;SDS011;5310;48.638;9.060;2022-11-15T16:29:12;0.40;;;0.40;;
10523;SDS011;5310;48.638;9.060;2022-11-15T16:31:38;0.40;;;0.40;;
10523;SDS011;5310;48.638;9.060;2022-11-15T16:34:04;0.40;;;0.40;;
10523;SDS011;5310;48.638;9.060;2022-11-15T16:36:32;0.40;;;0.40;;
10523;SDS011;5310;48.638;9.060;2022-11-15T16:38:58;0.50;;;0.50;;
10523;SDS011;5310;48.638;9.060;2022-11-15T16:41:25;0.50;;;0.50;;
10523;SDS011;5310;48.638;9.060;2022-11-15T16:43:51;0.47;;;0.47;;
10523;SDS011;5310;48.638;9.060;2022-11-15T16:46:21;0.40;;;0.40;;
10523;SDS011;5310;48.638;9.060;2022-11-15T16:48:48;0.40;;;0.40;;
10523;SDS011;5310;48.638;9.060;2022-11-15T16:51:14;0.50;;;0.50;;
10523;SDS011;5310;48.638;9.060;2022-11-15T16:53:40;0.40;;;0.40;;
10523;SDS011;5310;48.638;9.060;2022-11-15T16:58:58;0.50;;;0.50;;
10523;SDS011;5310;48.638;9.060;2022-11-15T17:01:26;0.50;;;0.50;;
10523;SDS011;5310;48.638;9.060;2022-11-15T17:03:53;0.40;;;0.40;;
10523;SDS011;5310;48.638;9.060;2022-11-15T17:06:19;0.40;;;0.40;;
10523;SDS011;5310;48.638;9.060;2022-11-15T17:08:47;0.30;;;0.30;;
10523;SDS011;5310;48.638;9.060;2022-11-15T17:11:14;0.30;;;0.30;;
10523;SDS011;5310;48.638;9.060;2022-11-15T17:13:43;0.30;;;0.30;;
10523;SDS011;5310;48.638;9.060;2022-11-15T17:16:11;0.35;;;0.35;;
10523;SDS011;5310;48.638;9.060;2022-11-15T17:18:38;0.40;;;0.40;;
10523;SDS011;5310;48.638;9.060;2022-11-15T17:21:09;0.40;;;0.40;;
10523;SDS011;5310;48.638;9.060;2022-11-15T17:23:41;0.40;;;0.40;;
10523;SDS011;5310;48.638;9.060;2022-11-15T17:26:08;0.47;;;0.47;;